• Join FlightAware (Why Join?)
  • Login
  • US Flag 
09:02PM EDT


 

Airport Tracker/Info


-or-


 

Live Flight TrackerFlight Track Log ✈ SKW4664 ✈ 28-Apr-2013 ✈ KFSD - KMSP

Flight Track Log - Related Links

Times and Time Zones

All times are in EDT time to prevent confusion due to time zone crossing. See the SKW4664 flight status page for this flight to view local times or setup timezone preferences in your user account.

Time Position Orientation Groundspeed Altitude Reporting Facility
EDT Latitude Longitude Course Direction KTS MPH feet Rate Location/Type
12:06PM 43.5386 -96.6606 116° Southeast 226 260 4,100  Level Minneapolis Center
12:07PM 43.5850 -96.5822 51° Northeast 253 291 6,000 2,280 Climbing Minneapolis Center
12:08PM 43.8523 -96.2348 53° Northeast  Level FlightAware Approximate
12:08PM 43.6375 -96.4969 50° Northeast 276 318 8,900  Level Minneapolis Center
12:09PM 43.9221 -96.1068 52° Northeast  Level FlightAware Approximate
12:09PM 43.6903 -96.4108 50° Northeast 287 330 11,100  Level Minneapolis Center
12:10PM 43.9929 -95.9798 52° Northeast  Level FlightAware Approximate
12:10PM 43.7617 -96.2964 49° Northeast 317 365 13,500  Level Minneapolis Center
12:11PM 43.8117 -96.2161 49° Northeast 340 391 15,200 1,800 Climbing Minneapolis Center
12:12PM 43.8875 -96.0933 49° Northeast 352 405 17,300 1,860 Climbing Minneapolis Center
12:13PM 43.9525 -95.9856 50° Northeast 365 420 19,100 1,560 Climbing Minneapolis Center
12:14PM 44.0192 -95.8769 49° Northeast 372 428 20,600 1,320 Climbing Minneapolis Center
12:15PM 44.0783 -95.7567 56° Northeast 380 437 21,900 1,140 Climbing Minneapolis Center
12:16PM 44.1414 -95.5967 61° Northeast 395 455 23,000 480 Climbing Minneapolis Center
12:17PM 44.1975 -95.4528 61° Northeast 420 483 23,000  Level Minneapolis Center
12:18PM 44.2553 -95.3056 61° Northeast 433 498 23,000  Level Minneapolis Center
12:19PM 44.3136 -95.1572 61° Northeast 438 504 23,000  Level Minneapolis Center
12:20PM 44.3700 -95.0075 62° Northeast 438 504 23,000  Level Minneapolis Center
12:21PM 44.4297 -94.8594 61° Northeast 438 504 23,000 -780 Level Minneapolis Center
12:22PM 44.4989 -94.6775 62° Northeast 442 509 21,400 -2,340 Descending Minneapolis Center
12:23PM 44.5519 -94.5308 63° Northeast 436 502 18,300 -2,880 Descending Minneapolis Center
12:24PM 44.5961 -94.4192 61° Northeast 415 478 15,600 -2,820 Descending Minneapolis Center
12:25PM 44.6553 -94.2611 62° Northeast 382 440 12,500 -2,340 Descending Minneapolis Center
12:26PM 44.6997 -94.1328 64° Northeast 369 425 10,900 -1,080 Descending Minneapolis Center
12:27PM 44.7267 -94.0069 73° East 334 384 10,400 -1,200 Descending Minneapolis Center
12:28PM 44.7625 -93.9011 64° Northeast 303 349 8,500 -1,680 Descending Minneapolis Center
12:29PM 44.8250 -93.7914 51° Northeast 299 344 7,000 -780 Descending Minneapolis Center
12:30PM 44.8767 -93.6994 52° Northeast 300 345 7,000 -360 Level Minneapolis Center
12:31PM 44.9247 -93.6131 52° Northeast 280 322 6,300 -960 Descending Minneapolis Center
12:32PM 44.9442 -93.5253 73° East 246 283 5,100 -1,440 Descending Minneapolis Center
12:33PM 44.9386 -93.4297 95° East 244 281 3,400 -1,080 Descending Minneapolis Center
12:34PM 44.9389 -93.3492 90° East 194 223 2,900 -540 Descending Minneapolis Center